Allen Army Airfield Delta Junction Ft Greely US
ICAO: PABI
IATA:
Category: Medium
Scheduled Services:

Elevation: 1291 ft
TransAlt. 18000 ft.

Airport Communications:
ASOS:135.65
ATIS:132.075
TWEB:114.9
ANCHORAGE CNTR:135.3
CTAF:122.9
FAIRBANKS RDO:122.2
FORT GREELY GND:118.225
FT GREELY RANGE CON:38.3
BASE OPS:122.9
TWR:125.325

PABI Zoom In..

Runways:

(A) RW 01 length 9000 ft width 150 ft
---- / hdg 7

(B) RW 07 length 4077 ft width 90 ft
---- / hdg 69

(C) RW 10 length 6115 ft width 150 ft
ILS 111.10 / hdg 102

(D) RW 19 length 9000 ft width 150 ft
---- / hdg 187

(E) RW 25 length 4077 ft width 90 ft
---- / hdg 249

(F) RW 28 length 6115 ft width 150 ft
---- / hdg 282

Location; PABI
Day. 22 / Time. 23.53 Zulu
* Altimeter: 29.90
* Temperature: -22° c. 7.6°f.
* Wind from: 360° Speed 03 kn.
Dewpoint: -25° c.
Visibility: 10 Statute Miles.
Clouds: Few 1500 ft.
Clouds: Overcast 2000 ft.

PABI 222353Z 36003KT 10SM FEW015 OVC020 M22/M25 A2990 RMK AO2 SNE23 SLP190 P0000 60000 I6000 T12221250 11222 21233 53001


Wind From 360°
Speed 03 kn.

YouTube Music Video
 
jpsmedia.com for Web Design  worldairports.se 2018   terms of use